sensor_id;sensor_type;location;lat;lon;timestamp;P1;durP1;ratioP1;P2;durP2;ratioP2
7659;SDS011;3872;47.902;8.162;2022-11-14T00:02:22;26.03;;;2.70;;
7659;SDS011;3872;47.902;8.162;2022-11-14T00:05:07;6.87;;;2.57;;
7659;SDS011;3872;47.902;8.162;2022-11-14T00:07:53;18.23;;;2.80;;
7659;SDS011;3872;47.902;8.162;2022-11-14T00:10:39;4.00;;;1.87;;
7659;SDS011;3872;47.902;8.162;2022-11-14T00:13:24;4.93;;;2.60;;
7659;SDS011;3872;47.902;8.162;2022-11-14T00:16:10;8.90;;;2.60;;
7659;SDS011;3872;47.902;8.162;2022-11-14T00:18:55;14.23;;;3.47;;
7659;SDS011;3872;47.902;8.162;2022-11-14T00:21:40;18.13;;;2.30;;
7659;SDS011;3872;47.902;8.162;2022-11-14T00:24:25;26.97;;;3.30;;
7659;SDS011;3872;47.902;8.162;2022-11-14T00:27:12;21.33;;;2.27;;
7659;SDS011;3872;47.902;8.162;2022-11-14T00:29:57;22.43;;;3.13;;
7659;SDS011;3872;47.902;8.162;2022-11-14T00:32:43;17.23;;;2.67;;
7659;SDS011;3872;47.902;8.162;2022-11-14T00:35:28;18.00;;;2.60;;
7659;SDS011;3872;47.902;8.162;2022-11-14T00:38:13;32.23;;;3.67;;
7659;SDS011;3872;47.902;8.162;2022-11-14T00:40:59;4.93;;;1.90;;
7659;SDS011;3872;47.902;8.162;2022-11-14T00:43:45;22.93;;;2.40;;
7659;SDS011;3872;47.902;8.162;2022-11-14T00:46:31;4.47;;;2.20;;
7659;SDS011;3872;47.902;8.162;2022-11-14T00:49:17;6.33;;;2.27;;
7659;SDS011;3872;47.902;8.162;2022-11-14T00:52:02;13.93;;;2.40;;
7659;SDS011;3872;47.902;8.162;2022-11-14T00:54:47;7.47;;;2.10;;
7659;SDS011;3872;47.902;8.162;2022-11-14T00:57:32;7.17;;;2.33;;
7659;SDS011;3872;47.902;8.162;2022-11-14T01:00:20;18.40;;;2.50;;
7659;SDS011;3872;47.902;8.162;2022-11-14T01:03:05;13.43;;;2.53;;
7659;SDS011;3872;47.902;8.162;2022-11-14T01:05:50;33.57;;;2.57;;
7659;SDS011;3872;47.902;8.162;2022-11-14T01:08:36;13.70;;;2.70;;
7659;SDS011;3872;47.902;8.162;2022-11-14T01:11:21;7.20;;;1.90;;
7659;SDS011;3872;47.902;8.162;2022-11-14T01:14:07;8.87;;;2.57;;
7659;SDS011;3872;47.902;8.162;2022-11-14T01:16:54;24.23;;;3.30;;
7659;SDS011;3872;47.902;8.162;2022-11-14T01:19:39;17.80;;;2.40;;
7659;SDS011;3872;47.902;8.162;2022-11-14T01:22:25;22.37;;;2.87;;
7659;SDS011;3872;47.902;8.162;2022-11-14T01:25:11;12.23;;;2.33;;
7659;SDS011;3872;47.902;8.162;2022-11-14T01:27:56;18.93;;;2.40;;
7659;SDS011;3872;47.902;8.162;2022-11-14T01:30:41;7.43;;;2.33;;
7659;SDS011;3872;47.902;8.162;2022-11-14T01:33:28;19.93;;;2.20;;
7659;SDS011;3872;47.902;8.162;2022-11-14T01:36:13;13.20;;;2.27;;
7659;SDS011;3872;47.902;8.162;2022-11-14T01:38:58;7.00;;;2.60;;
7659;SDS011;3872;47.902;8.162;2022-11-14T01:41:43;23.70;;;3.10;;
7659;SDS011;3872;47.902;8.162;2022-11-14T01:44:45;4.50;;;2.00;;
7659;SDS011;3872;47.902;8.162;2022-11-14T01:47:31;18.87;;;3.00;;
7659;SDS011;3872;47.902;8.162;2022-11-14T01:50:18;6.07;;;2.73;;
7659;SDS011;3872;47.902;8.162;2022-11-14T01:53:03;7.93;;;1.87;;
7659;SDS011;3872;47.902;8.162;2022-11-14T01:55:49;3.80;;;1.63;;
7659;SDS011;3872;47.902;8.162;2022-11-14T01:58:36;10.20;;;2.17;;
7659;SDS011;3872;47.902;8.162;2022-11-14T02:01:26;4.47;;;1.53;;
7659;SDS011;3872;47.902;8.162;2022-11-14T02:04:20;8.53;;;1.87;;
7659;SDS011;3872;47.902;8.162;2022-11-14T02:07:09;4.67;;;2.17;;
7659;SDS011;3872;47.902;8.162;2022-11-14T02:09:56;6.07;;;2.17;;
7659;SDS011;3872;47.902;8.162;2022-11-14T02:12:44;15.57;;;2.00;;
7659;SDS011;3872;47.902;8.162;2022-11-14T02:15:30;18.57;;;2.47;;
7659;SDS011;3872;47.902;8.162;2022-11-14T02:18:16;5.43;;;2.27;;
7659;SDS011;3872;47.902;8.162;2022-11-14T02:21:03;6.63;;;1.90;;
7659;SDS011;3872;47.902;8.162;2022-11-14T02:23:48;8.53;;;1.63;;
7659;SDS011;3872;47.902;8.162;2022-11-14T02:26:34;6.00;;;2.43;;
7659;SDS011;3872;47.902;8.162;2022-11-14T02:29:19;4.13;;;2.10;;
7659;SDS011;3872;47.902;8.162;2022-11-14T02:32:04;4.30;;;1.50;;
7659;SDS011;3872;47.902;8.162;2022-11-14T02:34:50;5.53;;;1.90;;
7659;SDS011;3872;47.902;8.162;2022-11-14T02:37:36;4.37;;;1.70;;
7659;SDS011;3872;47.902;8.162;2022-11-14T02:40:22;4.80;;;2.20;;
7659;SDS011;3872;47.902;8.162;2022-11-14T02:43:07;14.90;;;2.13;;
7659;SDS011;3872;47.902;8.162;2022-11-14T02:45:52;12.60;;;2.73;;
7659;SDS011;3872;47.902;8.162;2022-11-14T02:48:38;4.00;;;1.60;;
7659;SDS011;3872;47.902;8.162;2022-11-14T02:51:23;7.50;;;2.37;;
7659;SDS011;3872;47.902;8.162;2022-11-14T02:54:10;12.23;;;3.30;;
7659;SDS011;3872;47.902;8.162;2022-11-14T02:56:57;13.03;;;3.10;;
7659;SDS011;3872;47.902;8.162;2022-11-14T02:59:42;43.93;;;3.60;;
7659;SDS011;3872;47.902;8.162;2022-11-14T03:02:27;11.93;;;1.90;;
7659;SDS011;3872;47.902;8.162;2022-11-14T03:05:13;20.70;;;2.33;;
7659;SDS011;3872;47.902;8.162;2022-11-14T03:07:58;18.57;;;2.27;;
7659;SDS011;3872;47.902;8.162;2022-11-14T03:10:45;4.67;;;1.97;;
7659;SDS011;3872;47.902;8.162;2022-11-14T03:13:30;4.70;;;1.80;;
7659;SDS011;3872;47.902;8.162;2022-11-14T03:16:15;4.23;;;1.80;;
7659;SDS011;3872;47.902;8.162;2022-11-14T03:19:01;9.97;;;2.23;;
7659;SDS011;3872;47.902;8.162;2022-11-14T03:21:46;5.10;;;2.17;;
7659;SDS011;3872;47.902;8.162;2022-11-14T03:24:31;14.07;;;1.97;;
7659;SDS011;3872;47.902;8.162;2022-11-14T03:27:18;12.80;;;2.23;;
7659;SDS011;3872;47.902;8.162;2022-11-14T03:30:05;4.50;;;1.90;;
7659;SDS011;3872;47.902;8.162;2022-11-14T03:32:51;5.63;;;1.90;;
7659;SDS011;3872;47.902;8.162;2022-11-14T03:35:40;15.60;;;2.30;;
7659;SDS011;3872;47.902;8.162;2022-11-14T03:38:25;14.03;;;2.07;;
7659;SDS011;3872;47.902;8.162;2022-11-14T03:41:11;15.20;;;2.53;;
7659;SDS011;3872;47.902;8.162;2022-11-14T03:43:58;17.43;;;1.80;;
7659;SDS011;3872;47.902;8.162;2022-11-14T03:46:43;13.13;;;2.70;;
7659;SDS011;3872;47.902;8.162;2022-11-14T03:49:28;31.53;;;3.13;;
7659;SDS011;3872;47.902;8.162;2022-11-14T03:52:14;4.43;;;1.83;;
7659;SDS011;3872;47.902;8.162;2022-11-14T03:54:59;3.90;;;1.50;;
7659;SDS011;3872;47.902;8.162;2022-11-14T03:57:44;5.97;;;2.03;;
7659;SDS011;3872;47.902;8.162;2022-11-14T04:00:31;4.93;;;1.97;;
7659;SDS011;3872;47.902;8.162;2022-11-14T04:03:16;3.60;;;1.10;;
7659;SDS011;3872;47.902;8.162;2022-11-14T04:06:01;5.03;;;2.20;;
7659;SDS011;3872;47.902;8.162;2022-11-14T04:08:47;11.60;;;2.50;;
7659;SDS011;3872;47.902;8.162;2022-11-14T04:11:32;4.93;;;2.33;;
7659;SDS011;3872;47.902;8.162;2022-11-14T04:14:17;14.07;;;2.67;;
7659;SDS011;3872;47.902;8.162;2022-11-14T04:17:04;13.47;;;2.73;;
7659;SDS011;3872;47.902;8.162;2022-11-14T04:19:49;9.87;;;2.23;;
7659;SDS011;3872;47.902;8.162;2022-11-14T04:22:34;9.50;;;2.23;;
7659;SDS011;3872;47.902;8.162;2022-11-14T04:25:19;6.27;;;1.60;;
7659;SDS011;3872;47.902;8.162;2022-11-14T04:28:05;4.30;;;1.90;;
7659;SDS011;3872;47.902;8.162;2022-11-14T04:30:50;11.20;;;2.00;;
7659;SDS011;3872;47.902;8.162;2022-11-14T04:33:37;4.77;;;2.07;;
7659;SDS011;3872;47.902;8.162;2022-11-14T04:36:22;6.23;;;1.80;;
7659;SDS011;3872;47.902;8.162;2022-11-14T04:39:07;5.33;;;2.17;;
7659;SDS011;3872;47.902;8.162;2022-11-14T04:41:52;4.63;;;1.90;;
7659;SDS011;3872;47.902;8.162;2022-11-14T04:44:38;4.37;;;1.80;;
7659;SDS011;3872;47.902;8.162;2022-11-14T04:47:23;4.63;;;1.90;;
7659;SDS011;3872;47.902;8.162;2022-11-14T04:50:09;5.50;;;2.53;;
7659;SDS011;3872;47.902;8.162;2022-11-14T04:52:54;4.27;;;1.70;;
7659;SDS011;3872;47.902;8.162;2022-11-14T04:55:40;6.10;;;2.00;;
7659;SDS011;3872;47.902;8.162;2022-11-14T04:58:25;4.50;;;2.17;;
7659;SDS011;3872;47.902;8.162;2022-11-14T05:01:11;5.13;;;2.10;;
7659;SDS011;3872;47.902;8.162;2022-11-14T05:03:58;5.33;;;2.37;;
7659;SDS011;3872;47.902;8.162;2022-11-14T05:06:44;4.50;;;2.07;;
7659;SDS011;3872;47.902;8.162;2022-11-14T05:09:30;4.50;;;1.90;;
7659;SDS011;3872;47.902;8.162;2022-11-14T05:12:15;4.90;;;2.10;;
7659;SDS011;3872;47.902;8.162;2022-11-14T05:15:00;5.07;;;2.03;;
7659;SDS011;3872;47.902;8.162;2022-11-14T05:17:46;4.50;;;1.90;;
7659;SDS011;3872;47.902;8.162;2022-11-14T05:20:31;5.37;;;2.43;;
7659;SDS011;3872;47.902;8.162;2022-11-14T05:23:19;7.27;;;2.60;;
7659;SDS011;3872;47.902;8.162;2022-11-14T05:26:06;5.70;;;2.33;;
7659;SDS011;3872;47.902;8.162;2022-11-14T05:28:52;4.70;;;2.47;;
7659;SDS011;3872;47.902;8.162;2022-11-14T05:31:37;6.00;;;2.53;;
7659;SDS011;3872;47.902;8.162;2022-11-14T05:34:23;6.60;;;2.77;;
7659;SDS011;3872;47.902;8.162;2022-11-14T05:37:08;5.43;;;2.63;;
7659;SDS011;3872;47.902;8.162;2022-11-14T05:39:54;5.37;;;2.50;;
7659;SDS011;3872;47.902;8.162;2022-11-14T05:42:39;6.10;;;2.70;;
7659;SDS011;3872;47.902;8.162;2022-11-14T05:45:24;5.60;;;2.50;;
7659;SDS011;3872;47.902;8.162;2022-11-14T05:48:10;6.80;;;3.07;;
7659;SDS011;3872;47.902;8.162;2022-11-14T05:50:55;6.20;;;2.80;;
7659;SDS011;3872;47.902;8.162;2022-11-14T05:53:41;9.93;;;3.70;;
7659;SDS011;3872;47.902;8.162;2022-11-14T05:56:28;5.90;;;2.53;;
7659;SDS011;3872;47.902;8.162;2022-11-14T05:59:13;5.77;;;2.20;;
7659;SDS011;3872;47.902;8.162;2022-11-14T06:01:59;4.43;;;2.00;;
7659;SDS011;3872;47.902;8.162;2022-11-14T06:04:44;4.93;;;2.20;;
7659;SDS011;3872;47.902;8.162;2022-11-14T06:07:29;4.60;;;1.97;;
7659;SDS011;3872;47.902;8.162;2022-11-14T06:10:14;8.70;;;3.23;;
7659;SDS011;3872;47.902;8.162;2022-11-14T06:13:01;5.60;;;2.73;;
7659;SDS011;3872;47.902;8.162;2022-11-14T06:15:46;5.97;;;2.40;;
7659;SDS011;3872;47.902;8.162;2022-11-14T06:18:32;5.33;;;2.70;;
7659;SDS011;3872;47.902;8.162;2022-11-14T06:21:19;6.67;;;2.90;;
7659;SDS011;3872;47.902;8.162;2022-11-14T06:24:06;6.57;;;3.40;;
7659;SDS011;3872;47.902;8.162;2022-11-14T06:26:51;7.50;;;3.30;;
7659;SDS011;3872;47.902;8.162;2022-11-14T06:29:38;10.13;;;3.40;;
7659;SDS011;3872;47.902;8.162;2022-11-14T06:32:23;8.50;;;3.77;;
7659;SDS011;3872;47.902;8.162;2022-11-14T06:35:08;6.50;;;3.17;;
7659;SDS011;3872;47.902;8.162;2022-11-14T06:37:53;7.13;;;3.80;;
7659;SDS011;3872;47.902;8.162;2022-11-14T06:40:39;10.13;;;3.87;;
7659;SDS011;3872;47.902;8.162;2022-11-14T06:43:24;11.00;;;4.27;;
7659;SDS011;3872;47.902;8.162;2022-11-14T06:46:11;10.77;;;4.87;;
7659;SDS011;3872;47.902;8.162;2022-11-14T06:48:58;12.10;;;4.97;;
7659;SDS011;3872;47.902;8.162;2022-11-14T06:51:43;13.43;;;5.67;;
7659;SDS011;3872;47.902;8.162;2022-11-14T06:54:28;18.70;;;7.80;;
7659;SDS011;3872;47.902;8.162;2022-11-14T06:57:14;17.40;;;7.50;;
7659;SDS011;3872;47.902;8.162;2022-11-14T06:59:59;20.87;;;8.53;;
7659;SDS011;3872;47.902;8.162;2022-11-14T07:02:46;12.57;;;6.47;;
7659;SDS011;3872;47.902;8.162;2022-11-14T07:05:31;17.53;;;6.97;;
7659;SDS011;3872;47.902;8.162;2022-11-14T07:08:16;14.53;;;6.40;;
7659;SDS011;3872;47.902;8.162;2022-11-14T07:11:02;10.13;;;5.43;;
7659;SDS011;3872;47.902;8.162;2022-11-14T07:13:48;12.93;;;6.70;;
7659;SDS011;3872;47.902;8.162;2022-11-14T07:16:34;17.80;;;6.93;;
7659;SDS011;3872;47.902;8.162;2022-11-14T07:19:21;15.13;;;6.63;;
7659;SDS011;3872;47.902;8.162;2022-11-14T07:22:06;14.20;;;6.83;;
7659;SDS011;3872;47.902;8.162;2022-11-14T07:24:51;15.83;;;6.90;;
7659;SDS011;3872;47.902;8.162;2022-11-14T07:27:37;9.70;;;5.27;;
7659;SDS011;3872;47.902;8.162;2022-11-14T07:30:22;14.20;;;7.10;;
7659;SDS011;3872;47.902;8.162;2022-11-14T07:33:07;14.43;;;5.60;;
7659;SDS011;3872;47.902;8.162;2022-11-14T07:35:55;14.17;;;6.13;;
7659;SDS011;3872;47.902;8.162;2022-11-14T07:38:40;16.77;;;7.17;;
7659;SDS011;3872;47.902;8.162;2022-11-14T07:41:25;12.10;;;5.87;;
7659;SDS011;3872;47.902;8.162;2022-11-14T07:44:10;17.40;;;7.10;;
7659;SDS011;3872;47.902;8.162;2022-11-14T07:46:55;12.57;;;6.50;;
7659;SDS011;3872;47.902;8.162;2022-11-14T07:49:40;15.43;;;7.63;;
7659;SDS011;3872;47.902;8.162;2022-11-14T07:52:28;16.57;;;7.10;;
7659;SDS011;3872;47.902;8.162;2022-11-14T07:55:13;12.60;;;6.63;;
7659;SDS011;3872;47.902;8.162;2022-11-14T07:57:59;12.73;;;6.23;;
7659;SDS011;3872;47.902;8.162;2022-11-14T08:00:44;16.33;;;6.67;;
7659;SDS011;3872;47.902;8.162;2022-11-14T08:03:29;16.70;;;6.80;;
7659;SDS011;3872;47.902;8.162;2022-11-14T08:06:15;15.90;;;6.90;;
7659;SDS011;3872;47.902;8.162;2022-11-14T08:09:03;16.83;;;5.67;;
7659;SDS011;3872;47.902;8.162;2022-11-14T08:11:48;12.13;;;5.97;;
7659;SDS011;3872;47.902;8.162;2022-11-14T08:14:34;14.20;;;6.53;;
7659;SDS011;3872;47.902;8.162;2022-11-14T08:17:19;12.40;;;5.70;;
7659;SDS011;3872;47.902;8.162;2022-11-14T08:20:06;15.70;;;5.60;;
7659;SDS011;3872;47.902;8.162;2022-11-14T08:22:52;10.40;;;5.23;;
7659;SDS011;3872;47.902;8.162;2022-11-14T08:25:39;10.10;;;4.87;;
7659;SDS011;3872;47.902;8.162;2022-11-14T08:28:25;12.33;;;5.23;;
7659;SDS011;3872;47.902;8.162;2022-11-14T08:31:10;7.83;;;4.10;;
7659;SDS011;3872;47.902;8.162;2022-11-14T08:33:56;7.60;;;3.27;;
7659;SDS011;3872;47.902;8.162;2022-11-14T08:36:41;8.60;;;3.87;;
7659;SDS011;3872;47.902;8.162;2022-11-14T08:39:27;6.87;;;3.50;;
7659;SDS011;3872;47.902;8.162;2022-11-14T08:42:15;7.00;;;3.23;;
7659;SDS011;3872;47.902;8.162;2022-11-14T08:45:00;13.40;;;3.47;;
7659;SDS011;3872;47.902;8.162;2022-11-14T08:47:52;7.30;;;3.17;;
7659;SDS011;3872;47.902;8.162;2022-11-14T08:50:37;6.43;;;2.97;;
7659;SDS011;3872;47.902;8.162;2022-11-14T08:53:23;6.10;;;2.50;;
7659;SDS011;3872;47.902;8.162;2022-11-14T08:56:08;6.70;;;3.30;;
7659;SDS011;3872;47.902;8.162;2022-11-14T08:58:55;6.70;;;2.63;;
7659;SDS011;3872;47.902;8.162;2022-11-14T09:01:41;5.30;;;2.33;;
7659;SDS011;3872;47.902;8.162;2022-11-14T09:04:26;6.87;;;2.77;;
7659;SDS011;3872;47.902;8.162;2022-11-14T09:07:12;7.43;;;3.23;;
7659;SDS011;3872;47.902;8.162;2022-11-14T09:09:57;6.20;;;2.17;;
7659;SDS011;3872;47.902;8.162;2022-11-14T09:12:43;4.50;;;1.67;;
7659;SDS011;3872;47.902;8.162;2022-11-14T09:15:30;7.43;;;2.30;;
7659;SDS011;3872;47.902;8.162;2022-11-14T09:18:16;10.73;;;3.47;;
7659;SDS011;3872;47.902;8.162;2022-11-14T09:21:02;5.77;;;2.00;;
7659;SDS011;3872;47.902;8.162;2022-11-14T09:23:48;9.37;;;4.17;;
7659;SDS011;3872;47.902;8.162;2022-11-14T09:26:34;5.63;;;2.50;;
7659;SDS011;3872;47.902;8.162;2022-11-14T09:29:19;4.73;;;2.23;;
7659;SDS011;3872;47.902;8.162;2022-11-14T09:32:06;7.23;;;2.27;;
7659;SDS011;3872;47.902;8.162;2022-11-14T09:34:52;8.20;;;2.17;;
7659;SDS011;3872;47.902;8.162;2022-11-14T09:37:37;6.07;;;2.97;;
7659;SDS011;3872;47.902;8.162;2022-11-14T09:40:23;4.77;;;2.00;;
7659;SDS011;3872;47.902;8.162;2022-11-14T09:43:12;7.47;;;2.57;;
7659;SDS011;3872;47.902;8.162;2022-11-14T09:46:11;5.63;;;2.50;;
7659;SDS011;3872;47.902;8.162;2022-11-14T09:49:05;6.27;;;2.10;;
7659;SDS011;3872;47.902;8.162;2022-11-14T09:51:57;4.33;;;1.63;;
7659;SDS011;3872;47.902;8.162;2022-11-14T09:54:49;4.97;;;2.00;;
7659;SDS011;3872;47.902;8.162;2022-11-14T09:57:40;4.60;;;1.87;;
7659;SDS011;3872;47.902;8.162;2022-11-14T10:00:27;4.10;;;1.33;;
7659;SDS011;3872;47.902;8.162;2022-11-14T10:03:22;4.37;;;1.23;;
7659;SDS011;3872;47.902;8.162;2022-11-14T10:06:24;5.30;;;1.33;;
7659;SDS011;3872;47.902;8.162;2022-11-14T10:09:20;4.03;;;1.33;;
7659;SDS011;3872;47.902;8.162;2022-11-14T10:12:16;3.80;;;1.23;;
7659;SDS011;3872;47.902;8.162;2022-11-14T10:15:16;3.97;;;1.37;;
7659;SDS011;3872;47.902;8.162;2022-11-14T10:18:11;5.30;;;1.30;;
7659;SDS011;3872;47.902;8.162;2022-11-14T10:21:07;4.50;;;1.77;;
7659;SDS011;3872;47.902;8.162;2022-11-14T10:24:14;5.90;;;1.83;;
7659;SDS011;3872;47.902;8.162;2022-11-14T10:27:15;3.90;;;1.50;;
7659;SDS011;3872;47.902;8.162;2022-11-14T10:30:05;7.40;;;1.63;;
7659;SDS011;3872;47.902;8.162;2022-11-14T10:33:07;4.13;;;1.57;;
7659;SDS011;3872;47.902;8.162;2022-11-14T10:36:03;4.70;;;1.60;;
7659;SDS011;3872;47.902;8.162;2022-11-14T10:38:58;4.47;;;1.57;;
7659;SDS011;3872;47.902;8.162;2022-11-14T10:41:51;4.07;;;1.37;;
7659;SDS011;3872;47.902;8.162;2022-11-14T10:44:41;4.07;;;1.53;;
7659;SDS011;3872;47.902;8.162;2022-11-14T10:47:34;4.60;;;1.60;;
7659;SDS011;3872;47.902;8.162;2022-11-14T10:50:24;4.40;;;1.37;;
7659;SDS011;3872;47.902;8.162;2022-11-14T10:53:13;4.50;;;1.70;;
7659;SDS011;3872;47.902;8.162;2022-11-14T10:56:08;4.70;;;1.90;;
7659;SDS011;3872;47.902;8.162;2022-11-14T10:58:56;8.40;;;2.10;;
7659;SDS011;3872;47.902;8.162;2022-11-14T11:01:42;4.83;;;1.87;;
7659;SDS011;3872;47.902;8.162;2022-11-14T11:04:29;6.10;;;1.70;;
7659;SDS011;3872;47.902;8.162;2022-11-14T11:07:20;5.47;;;1.87;;
7659;SDS011;3872;47.902;8.162;2022-11-14T11:10:25;3.90;;;1.33;;
7659;SDS011;3872;47.902;8.162;2022-11-14T11:13:32;4.43;;;1.90;;
7659;SDS011;3872;47.902;8.162;2022-11-14T11:16:20;4.80;;;2.10;;
7659;SDS011;3872;47.902;8.162;2022-11-14T11:19:12;4.17;;;1.53;;
7659;SDS011;3872;47.902;8.162;2022-11-14T11:21:59;4.40;;;1.80;;
7659;SDS011;3872;47.902;8.162;2022-11-14T11:24:44;4.60;;;1.90;;
7659;SDS011;3872;47.902;8.162;2022-11-14T11:27:29;5.23;;;1.90;;
7659;SDS011;3872;47.902;8.162;2022-11-14T11:30:18;5.30;;;2.03;;
7659;SDS011;3872;47.902;8.162;2022-11-14T11:33:21;5.90;;;2.37;;
7659;SDS011;3872;47.902;8.162;2022-11-14T11:36:11;4.77;;;2.57;;
7659;SDS011;3872;47.902;8.162;2022-11-14T11:38:59;6.80;;;2.60;;
7659;SDS011;3872;47.902;8.162;2022-11-14T11:41:44;12.77;;;3.70;;
7659;SDS011;3872;47.902;8.162;2022-11-14T11:44:32;4.87;;;2.23;;
7659;SDS011;3872;47.902;8.162;2022-11-14T11:47:20;10.23;;;4.73;;
7659;SDS011;3872;47.902;8.162;2022-11-14T11:50:11;8.13;;;2.80;;
7659;SDS011;3872;47.902;8.162;2022-11-14T11:53:00;7.03;;;3.47;;
7659;SDS011;3872;47.902;8.162;2022-11-14T11:55:58;4.60;;;2.20;;
7659;SDS011;3872;47.902;8.162;2022-11-14T11:58:49;5.33;;;2.27;;
7659;SDS011;3872;47.902;8.162;2022-11-14T12:01:37;5.53;;;2.60;;
7659;SDS011;3872;47.902;8.162;2022-11-14T12:04:22;10.60;;;4.70;;
7659;SDS011;3872;47.902;8.162;2022-11-14T12:07:11;11.23;;;2.77;;
7659;SDS011;3872;47.902;8.162;2022-11-14T12:10:02;32.30;;;9.20;;
7659;SDS011;3872;47.902;8.162;2022-11-14T12:16:20;37.27;;;11.47;;
7659;SDS011;3872;47.902;8.162;2022-11-14T12:19:22;10.80;;;4.80;;
7659;SDS011;3872;47.902;8.162;2022-11-14T12:22:34;5.50;;;2.30;;
7659;SDS011;3872;47.902;8.162;2022-11-14T12:25:37;4.20;;;1.80;;
7659;SDS011;3872;47.902;8.162;2022-11-14T12:28:45;4.27;;;1.70;;
7659;SDS011;3872;47.902;8.162;2022-11-14T12:31:42;6.80;;;2.33;;
7659;SDS011;3872;47.902;8.162;2022-11-14T12:34:29;5.30;;;1.60;;
7659;SDS011;3872;47.902;8.162;2022-11-14T12:37:19;5.50;;;2.50;;
7659;SDS011;3872;47.902;8.162;2022-11-14T12:40:16;5.60;;;2.03;;
7659;SDS011;3872;47.902;8.162;2022-11-14T12:43:27;5.50;;;2.47;;
7659;SDS011;3872;47.902;8.162;2022-11-14T12:46:16;4.40;;;1.83;;
7659;SDS011;3872;47.902;8.162;2022-11-14T12:49:02;4.90;;;1.90;;
7659;SDS011;3872;47.902;8.162;2022-11-14T13:02:16;8.87;;;2.30;;
7659;SDS011;3872;47.902;8.162;2022-11-14T13:05:19;5.30;;;2.10;;
7659;SDS011;3872;47.902;8.162;2022-11-14T13:08:14;4.53;;;1.80;;
7659;SDS011;3872;47.902;8.162;2022-11-14T13:14:46;6.50;;;2.73;;
7659;SDS011;3872;47.902;8.162;2022-11-14T13:18:00;4.80;;;1.93;;
7659;SDS011;3872;47.902;8.162;2022-11-14T13:21:05;5.43;;;2.37;;
7659;SDS011;3872;47.902;8.162;2022-11-14T13:24:19;6.10;;;2.20;;
7659;SDS011;3872;47.902;8.162;2022-11-14T13:30:10;6.90;;;2.50;;
7659;SDS011;3872;47.902;8.162;2022-11-14T13:32:55;5.00;;;2.03;;
7659;SDS011;3872;47.902;8.162;2022-11-14T13:35:43;4.90;;;2.03;;
7659;SDS011;3872;47.902;8.162;2022-11-14T13:45:22;5.90;;;1.90;;
7659;SDS011;3872;47.902;8.162;2022-11-14T13:48:31;4.57;;;2.30;;
7659;SDS011;3872;47.902;8.162;2022-11-14T13:51:25;5.53;;;2.30;;
7659;SDS011;3872;47.902;8.162;2022-11-14T13:54:13;4.20;;;2.03;;
7659;SDS011;3872;47.902;8.162;2022-11-14T13:57:02;7.30;;;1.83;;
7659;SDS011;3872;47.902;8.162;2022-11-14T14:00:04;5.50;;;1.90;;
7659;SDS011;3872;47.902;8.162;2022-11-14T14:05:56;4.70;;;1.90;;
7659;SDS011;3872;47.902;8.162;2022-11-14T14:08:56;5.13;;;2.13;;
7659;SDS011;3872;47.902;8.162;2022-11-14T14:11:55;9.33;;;2.43;;
7659;SDS011;3872;47.902;8.162;2022-11-14T14:14:57;8.80;;;1.67;;
7659;SDS011;3872;47.902;8.162;2022-11-14T14:17:57;8.63;;;1.97;;
7659;SDS011;3872;47.902;8.162;2022-11-14T14:20:50;7.10;;;2.13;;
7659;SDS011;3872;47.902;8.162;2022-11-14T14:23:42;4.53;;;1.60;;
7659;SDS011;3872;47.902;8.162;2022-11-14T14:26:38;8.97;;;1.90;;
7659;SDS011;3872;47.902;8.162;2022-11-14T14:29:39;7.37;;;1.90;;
7659;SDS011;3872;47.902;8.162;2022-11-14T14:32:33;6.93;;;2.20;;
7659;SDS011;3872;47.902;8.162;2022-11-14T14:35:22;7.17;;;2.10;;
7659;SDS011;3872;47.902;8.162;2022-11-14T14:38:10;4.73;;;1.90;;
7659;SDS011;3872;47.902;8.162;2022-11-14T14:40:56;8.77;;;2.10;;
7659;SDS011;3872;47.902;8.162;2022-11-14T14:43:42;5.83;;;1.87;;
7659;SDS011;3872;47.902;8.162;2022-11-14T14:46:34;10.70;;;2.63;;
7659;SDS011;3872;47.902;8.162;2022-11-14T14:49:22;4.93;;;2.20;;
7659;SDS011;3872;47.902;8.162;2022-11-14T14:52:19;5.53;;;1.97;;
7659;SDS011;3872;47.902;8.162;2022-11-14T14:55:06;5.70;;;1.90;;
7659;SDS011;3872;47.902;8.162;2022-11-14T14:58:13;9.33;;;2.00;;
7659;SDS011;3872;47.902;8.162;2022-11-14T15:01:00;4.40;;;1.63;;
7659;SDS011;3872;47.902;8.162;2022-11-14T15:03:50;4.60;;;1.63;;
7659;SDS011;3872;47.902;8.162;2022-11-14T15:06:43;4.77;;;1.90;;
7659;SDS011;3872;47.902;8.162;2022-11-14T15:09:29;4.87;;;2.30;;
7659;SDS011;3872;47.902;8.162;2022-11-14T15:12:14;4.60;;;1.40;;
7659;SDS011;3872;47.902;8.162;2022-11-14T15:14:59;6.47;;;1.77;;
7659;SDS011;3872;47.902;8.162;2022-11-14T15:17:46;11.60;;;1.70;;
7659;SDS011;3872;47.902;8.162;2022-11-14T15:20:32;4.30;;;1.90;;
7659;SDS011;3872;47.902;8.162;2022-11-14T15:23:19;10.93;;;1.73;;
7659;SDS011;3872;47.902;8.162;2022-11-14T15:26:09;4.87;;;2.03;;
7659;SDS011;3872;47.902;8.162;2022-11-14T15:29:05;5.67;;;1.57;;
7659;SDS011;3872;47.902;8.162;2022-11-14T15:31:55;5.07;;;1.57;;
7659;SDS011;3872;47.902;8.162;2022-11-14T15:34:42;10.30;;;1.63;;
7659;SDS011;3872;47.902;8.162;2022-11-14T15:37:58;6.27;;;2.47;;
7659;SDS011;3872;47.902;8.162;2022-11-14T15:41:07;6.17;;;2.00;;
7659;SDS011;3872;47.902;8.162;2022-11-14T15:44:00;5.40;;;1.80;;
7659;SDS011;3872;47.902;8.162;2022-11-14T15:46:48;4.20;;;1.60;;
7659;SDS011;3872;47.902;8.162;2022-11-14T15:49:33;6.80;;;2.90;;
7659;SDS011;3872;47.902;8.162;2022-11-14T15:52:20;5.20;;;2.10;;
7659;SDS011;3872;47.902;8.162;2022-11-14T15:55:11;5.60;;;1.70;;
7659;SDS011;3872;47.902;8.162;2022-11-14T15:58:00;8.70;;;2.10;;
7659;SDS011;3872;47.902;8.162;2022-11-14T16:00:46;4.43;;;1.70;;
7659;SDS011;3872;47.902;8.162;2022-11-14T16:03:34;8.60;;;3.37;;
7659;SDS011;3872;47.902;8.162;2022-11-14T16:06:19;5.83;;;2.40;;
7659;SDS011;3872;47.902;8.162;2022-11-14T16:09:04;4.63;;;2.13;;
7659;SDS011;3872;47.902;8.162;2022-11-14T16:11:50;4.40;;;1.80;;
7659;SDS011;3872;47.902;8.162;2022-11-14T16:14:37;4.63;;;1.63;;
7659;SDS011;3872;47.902;8.162;2022-11-14T16:17:22;5.70;;;1.53;;
7659;SDS011;3872;47.902;8.162;2022-11-14T16:20:10;12.00;;;1.80;;
7659;SDS011;3872;47.902;8.162;2022-11-14T16:22:59;5.00;;;1.47;;
7659;SDS011;3872;47.902;8.162;2022-11-14T16:25:44;4.30;;;1.70;;
7659;SDS011;3872;47.902;8.162;2022-11-14T16:28:29;6.07;;;1.50;;
7659;SDS011;3872;47.902;8.162;2022-11-14T16:31:16;12.67;;;4.20;;
7659;SDS011;3872;47.902;8.162;2022-11-14T16:34:02;6.40;;;3.63;;
7659;SDS011;3872;47.902;8.162;2022-11-14T16:36:48;10.23;;;3.73;;
7659;SDS011;3872;47.902;8.162;2022-11-14T16:39:34;10.50;;;4.83;;
7659;SDS011;3872;47.902;8.162;2022-11-14T16:42:22;5.63;;;2.60;;
7659;SDS011;3872;47.902;8.162;2022-11-14T16:45:07;5.37;;;1.73;;
7659;SDS011;3872;47.902;8.162;2022-11-14T16:47:55;4.10;;;1.33;;
7659;SDS011;3872;47.902;8.162;2022-11-14T16:50:40;5.77;;;1.97;;
7659;SDS011;3872;47.902;8.162;2022-11-14T16:53:25;11.00;;;1.37;;
7659;SDS011;3872;47.902;8.162;2022-11-14T16:56:11;6.50;;;1.57;;
7659;SDS011;3872;47.902;8.162;2022-11-14T16:58:56;8.93;;;1.67;;
7659;SDS011;3872;47.902;8.162;2022-11-14T17:01:41;6.70;;;2.50;;
7659;SDS011;3872;47.902;8.162;2022-11-14T17:04:28;5.03;;;2.10;;
7659;SDS011;3872;47.902;8.162;2022-11-14T17:07:13;4.27;;;1.73;;
7659;SDS011;3872;47.902;8.162;2022-11-14T17:09:59;6.33;;;1.83;;
7659;SDS011;3872;47.902;8.162;2022-11-14T17:12:44;10.80;;;2.90;;
7659;SDS011;3872;47.902;8.162;2022-11-14T17:15:30;5.23;;;1.73;;
7659;SDS011;3872;47.902;8.162;2022-11-14T17:18:15;8.93;;;3.87;;
7659;SDS011;3872;47.902;8.162;2022-11-14T17:21:04;5.83;;;2.80;;
7659;SDS011;3872;47.902;8.162;2022-11-14T17:23:54;6.70;;;2.30;;
7659;SDS011;3872;47.902;8.162;2022-11-14T17:26:40;4.53;;;2.20;;
7659;SDS011;3872;47.902;8.162;2022-11-14T17:29:25;4.50;;;2.00;;
7659;SDS011;3872;47.902;8.162;2022-11-14T17:32:11;4.77;;;2.20;;
7659;SDS011;3872;47.902;8.162;2022-11-14T17:34:56;5.43;;;1.90;;
7659;SDS011;3872;47.902;8.162;2022-11-14T17:37:43;6.00;;;3.30;;
7659;SDS011;3872;47.902;8.162;2022-11-14T17:40:28;5.63;;;3.37;;
7659;SDS011;3872;47.902;8.162;2022-11-14T17:43:14;5.63;;;3.07;;
7659;SDS011;3872;47.902;8.162;2022-11-14T17:46:00;6.60;;;3.03;;
7659;SDS011;3872;47.902;8.162;2022-11-14T17:48:46;5.53;;;2.00;;
7659;SDS011;3872;47.902;8.162;2022-11-14T17:51:32;5.03;;;1.90;;
7659;SDS011;3872;47.902;8.162;2022-11-14T17:54:18;5.20;;;2.10;;